createdAt,value
2022-11-12T00:01:25.992Z,11.09
2022-11-12T00:04:13.654Z,11.07
2022-11-12T00:07:01.149Z,10.95
2022-11-12T00:09:48.787Z,11.03
2022-11-12T00:12:37.965Z,10.89
2022-11-12T00:15:25.529Z,10.80
2022-11-12T00:18:13.203Z,10.67
2022-11-12T00:21:00.367Z,10.68
2022-11-12T00:23:48.705Z,10.59
2022-11-12T00:26:36.424Z,10.29
2022-11-12T00:29:25.469Z,10.38
2022-11-12T00:32:12.924Z,10.25
2022-11-12T00:35:02.602Z,10.19
2022-11-12T00:37:55.706Z,10.23
2022-11-12T00:40:43.551Z,10.21
2022-11-12T00:43:31.135Z,10.12
2022-11-12T00:46:19.936Z,10.18
2022-11-12T00:49:07.353Z,10.04
2022-11-12T00:51:54.686Z,9.88
2022-11-12T00:54:42.581Z,9.42
2022-11-12T00:57:29.848Z,9.66
2022-11-12T01:00:19.160Z,9.81
2022-11-12T01:03:08.061Z,10.04
2022-11-12T01:05:55.396Z,10.09
2022-11-12T01:08:43.095Z,10.13
2022-11-12T01:11:31.483Z,10.09
2022-11-12T01:14:18.725Z,10.22
2022-11-12T01:17:05.867Z,10.12
2022-11-12T01:19:54.842Z,10.18
2022-11-12T01:22:42.450Z,10.14
2022-11-12T01:25:30.052Z,10.34
2022-11-12T01:28:17.065Z,10.32
2022-11-12T01:31:12.005Z,10.37
2022-11-12T01:34:01.957Z,10.46
2022-11-12T01:36:50.468Z,10.36
2022-11-12T01:39:37.886Z,10.49
2022-11-12T01:42:29.436Z,9.83
2022-11-12T01:45:17.170Z,9.33
2022-11-12T01:48:04.751Z,9.32
2022-11-12T01:50:53.281Z,9.28
2022-11-12T01:53:47.087Z,9.68
2022-11-12T01:56:34.957Z,9.81
2022-11-12T01:59:26.445Z,9.52
2022-11-12T02:02:13.846Z,9.77
2022-11-12T02:05:03.522Z,9.95
2022-11-12T02:07:52.526Z,9.86
2022-11-12T02:10:42.008Z,9.90
2022-11-12T02:13:47.114Z,9.89
2022-11-12T02:16:37.390Z,10.14
2022-11-12T02:19:24.772Z,10.20
2022-11-12T02:22:13.705Z,10.23
2022-11-12T02:25:01.092Z,10.14
2022-11-12T02:27:51.990Z,10.24
2022-11-12T02:30:41.500Z,9.75
2022-11-12T02:33:28.935Z,9.70
2022-11-12T02:36:16.488Z,9.41
2022-11-12T02:39:05.554Z,9.66
2022-11-12T02:41:53.006Z,10.05
2022-11-12T02:44:40.726Z,9.95
2022-11-12T02:47:28.247Z,9.86
2022-11-12T02:50:15.953Z,9.61
2022-11-12T02:53:04.141Z,9.76
2022-11-12T02:55:53.062Z,9.97
2022-11-12T02:58:40.640Z,10.08
2022-11-12T03:01:27.864Z,10.15
2022-11-12T03:04:15.340Z,9.88
2022-11-12T03:07:03.232Z,9.66
2022-11-12T03:09:50.742Z,9.23
2022-11-12T03:12:39.759Z,9.37
2022-11-12T03:15:27.857Z,9.01
2022-11-12T03:18:15.370Z,9.08
2022-11-12T03:21:03.157Z,9.36
2022-11-12T03:23:50.275Z,9.47
2022-11-12T03:26:37.866Z,9.42
2022-11-12T03:29:27.364Z,9.43
2022-11-12T03:32:14.775Z,8.97
2022-11-12T03:35:02.104Z,9.04
2022-11-12T03:37:49.558Z,8.97
2022-11-12T03:40:37.178Z,9.06
2022-11-12T03:43:24.342Z,9.15
2022-11-12T03:46:13.539Z,8.66
2022-11-12T03:49:02.737Z,8.76
2022-11-12T03:51:49.988Z,8.47
2022-11-12T03:54:37.205Z,8.29
2022-11-12T03:57:24.383Z,8.54
2022-11-12T04:00:13.674Z,8.63
2022-11-12T04:03:02.612Z,8.81
2022-11-12T04:06:07.289Z,8.60
2022-11-12T04:08:54.659Z,8.72
2022-11-12T04:11:42.180Z,7.95
2022-11-12T04:14:28.600Z,8.20
2022-11-12T04:17:33.396Z,8.70
2022-11-12T04:20:39.804Z,8.64
2022-11-12T04:23:27.326Z,8.73
2022-11-12T04:26:25.411Z,8.61
2022-11-12T04:29:31.060Z,8.68
2022-11-12T04:32:21.712Z,8.73
2022-11-12T04:35:10.014Z,8.76
2022-11-12T04:37:58.980Z,8.57
2022-11-12T04:41:09.206Z,8.76
2022-11-12T04:44:14.304Z,8.92
2022-11-12T04:47:02.019Z,8.77
2022-11-12T04:49:49.202Z,8.64
2022-11-12T04:52:36.426Z,8.56
2022-11-12T04:55:25.343Z,8.55
2022-11-12T04:58:12.934Z,8.65
2022-11-12T05:01:00.405Z,8.65
2022-11-12T05:03:49.125Z,8.67
2022-11-12T05:06:54.775Z,8.46
2022-11-12T05:09:42.895Z,8.41
2022-11-12T05:12:31.448Z,8.34
2022-11-12T05:15:19.872Z,8.11
2022-11-12T05:18:07.499Z,7.81
2022-11-12T05:20:54.820Z,7.86
2022-11-12T05:23:42.068Z,8.21
2022-11-12T05:26:30.501Z,8.42
2022-11-12T05:29:20.020Z,8.46
2022-11-12T05:32:08.592Z,8.34
2022-11-12T05:34:55.799Z,8.45
2022-11-12T05:37:42.731Z,8.15
2022-11-12T05:40:30.119Z,7.24
2022-11-12T05:43:17.729Z,7.80
2022-11-12T05:46:06.832Z,8.17
2022-11-12T05:48:53.897Z,8.50
2022-11-12T05:51:41.652Z,8.32
2022-11-12T05:54:29.603Z,8.63
2022-11-12T05:57:16.787Z,8.52
2022-11-12T06:00:04.724Z,8.72
2022-11-12T06:02:58.097Z,8.66
2022-11-12T06:05:45.592Z,8.78
2022-11-12T06:08:32.917Z,8.78
2022-11-12T06:11:20.133Z,8.90
2022-11-12T06:14:07.694Z,9.17
2022-11-12T06:16:55.318Z,9.23
2022-11-12T06:19:44.030Z,9.19
2022-11-12T06:22:31.506Z,9.05
2022-11-12T06:25:19.338Z,9.28
2022-11-12T06:28:06.850Z,9.44
2022-11-12T06:30:54.803Z,9.37
2022-11-12T06:33:42.246Z,9.50
2022-11-12T06:36:31.404Z,8.97
2022-11-12T06:39:18.925Z,8.93
2022-11-12T06:42:06.345Z,9.32
2022-11-12T06:44:53.873Z,9.49
2022-11-12T06:47:41.004Z,9.37
2022-11-12T06:50:28.572Z,9.48
2022-11-12T06:53:17.572Z,9.41
2022-11-12T06:56:06.636Z,9.87
2022-11-12T06:58:54.367Z,9.98
2022-11-12T07:01:41.606Z,9.93
2022-11-12T07:04:29.604Z,9.89
2022-11-12T07:07:17.132Z,9.85
2022-11-12T07:10:06.480Z,9.78
2022-11-12T07:12:55.331Z,10.00
2022-11-12T07:15:42.686Z,10.29
2022-11-12T07:18:30.220Z,9.93
2022-11-12T07:21:19.036Z,9.45
2022-11-12T07:24:06.969Z,9.46
2022-11-12T07:26:55.602Z,10.01
2022-11-12T07:29:48.205Z,10.29
2022-11-12T07:32:42.817Z,10.03
2022-11-12T07:35:32.302Z,9.91
2022-11-12T07:38:19.732Z,9.91
2022-11-12T07:41:08.792Z,9.47
2022-11-12T07:43:57.440Z,9.84
2022-11-12T07:46:44.995Z,10.24
2022-11-12T07:49:32.561Z,10.48
2022-11-12T07:52:19.884Z,10.54
2022-11-12T07:55:08.237Z,10.43
2022-11-12T07:57:55.629Z,10.28
2022-11-12T08:00:44.214Z,10.76
2022-11-12T08:03:31.557Z,10.57
2022-11-12T08:06:19.056Z,11.01
2022-11-12T08:09:08.779Z,11.32
2022-11-12T08:11:56.211Z,11.09
2022-11-12T08:14:43.487Z,11.14
2022-11-12T08:17:32.041Z,11.23
2022-11-12T08:20:19.658Z,11.38
2022-11-12T08:23:07.184Z,12.08
2022-11-12T08:25:54.358Z,12.25
2022-11-12T08:28:41.624Z,12.41
2022-11-12T08:31:29.568Z,12.16
2022-11-12T08:34:22.518Z,12.31
2022-11-12T08:37:10.446Z,12.72
2022-11-12T08:39:57.658Z,12.69
2022-11-12T08:42:45.622Z,13.07
2022-11-12T08:45:34.422Z,13.17
2022-11-12T08:48:21.833Z,13.13
2022-11-12T08:51:10.900Z,12.55
2022-11-12T08:53:58.266Z,12.20
2022-11-12T08:56:45.876Z,12.64
2022-11-12T08:59:32.921Z,12.66
2022-11-12T09:02:20.403Z,13.03
2022-11-12T09:05:08.403Z,12.67
2022-11-12T09:08:00.766Z,13.07
2022-11-12T09:10:48.916Z,13.25
2022-11-12T09:13:36.636Z,13.50
2022-11-12T09:16:24.654Z,13.26
2022-11-12T09:19:11.934Z,12.98
2022-11-12T09:21:59.536Z,13.13
2022-11-12T09:24:48.425Z,13.05
2022-11-12T09:27:35.548Z,12.95
2022-11-12T09:30:23.508Z,12.90
2022-11-12T09:33:11.089Z,13.10
2022-11-12T09:36:01.985Z,13.17
2022-11-12T09:38:49.458Z,13.62
2022-11-12T09:41:40.362Z,14.12
2022-11-12T09:44:30.648Z,14.15
2022-11-12T09:47:26.245Z,13.96
2022-11-12T09:50:21.997Z,13.14
2022-11-12T09:53:15.538Z,13.11
2022-11-12T09:56:07.393Z,12.45
2022-11-12T09:58:56.027Z,12.50
2022-11-12T10:01:53.711Z,12.49
2022-11-12T10:05:01.986Z,12.28
2022-11-12T10:08:08.162Z,12.62
2022-11-12T10:11:07.105Z,12.62
2022-11-12T10:14:11.336Z,12.64
2022-11-12T10:17:07.801Z,12.70
2022-11-12T10:20:02.351Z,12.13
2022-11-12T10:23:06.749Z,12.54
2022-11-12T10:25:58.248Z,12.85
2022-11-12T10:28:48.930Z,13.01
2022-11-12T10:31:38.047Z,12.94
2022-11-12T10:34:26.276Z,13.44
2022-11-12T10:37:20.220Z,13.07
2022-11-12T10:40:29.893Z,12.92
2022-11-12T10:43:24.828Z,12.64
2022-11-12T10:46:20.790Z,12.77
2022-11-12T10:49:23.611Z,12.49
2022-11-12T10:52:23.210Z,13.02
2022-11-12T10:55:19.097Z,12.82
2022-11-12T10:58:09.085Z,12.25
2022-11-12T11:00:59.294Z,12.61
2022-11-12T11:03:49.809Z,11.98
2022-11-12T11:06:38.585Z,11.35
2022-11-12T11:09:27.317Z,11.72
2022-11-12T11:12:26.589Z,11.90
2022-11-12T11:15:21.693Z,12.04
2022-11-12T11:18:11.534Z,12.25
2022-11-12T11:21:22.544Z,11.78
2022-11-12T11:24:23.561Z,10.97
2022-11-12T11:27:25.620Z,11.03
2022-11-12T11:30:15.536Z,11.37
2022-11-12T11:33:17.194Z,10.83
2022-11-12T11:36:19.339Z,10.52
2022-11-12T11:39:19.463Z,10.71
2022-11-12T11:42:26.305Z,10.06
2022-11-12T11:45:18.528Z,9.88
2022-11-12T11:48:15.794Z,9.92
2022-11-12T11:51:11.515Z,10.12
2022-11-12T11:54:08.277Z,10.28
2022-11-12T11:57:00.067Z,10.72
2022-11-12T12:00:04.126Z,10.59
2022-11-12T12:03:08.261Z,10.38
2022-11-12T12:06:18.878Z,10.57
2022-11-12T12:09:20.512Z,10.58
2022-11-12T12:12:19.491Z,10.29
2022-11-12T12:15:30.724Z,10.46
2022-11-12T12:18:29.459Z,10.55
2022-11-12T12:21:18.249Z,10.90
2022-11-12T12:24:12.167Z,11.13
2022-11-12T12:27:05.761Z,10.80
2022-11-12T12:29:57.473Z,10.29
2022-11-12T12:32:53.858Z,10.25
2022-11-12T12:35:52.975Z,10.38
2022-11-12T12:38:45.377Z,10.06
2022-11-12T12:41:40.672Z,10.41
2022-11-12T12:44:45.220Z,10.55
2022-11-12T12:47:39.680Z,10.94
2022-11-12T12:50:28.760Z,10.72
2022-11-12T12:53:32.360Z,10.74
2022-11-12T12:56:47.627Z,10.89
2022-11-12T12:59:35.590Z,10.63
2022-11-12T13:02:25.588Z,10.53
2022-11-12T13:05:30.019Z,10.92
2022-11-12T13:08:24.717Z,11.24
2022-11-12T13:11:52.260Z,10.78
2022-11-12T13:15:02.419Z,10.59
2022-11-12T13:17:51.866Z,10.34
2022-11-12T13:20:43.000Z,10.82
2022-11-12T13:24:05.426Z,10.65
2022-11-12T13:26:56.911Z,11.13
2022-11-12T13:29:45.489Z,10.98
2022-11-12T13:32:38.714Z,11.32
2022-11-12T13:35:31.532Z,11.39
2022-11-12T13:38:20.802Z,11.36
2022-11-12T13:41:16.341Z,11.45
2022-11-12T13:44:08.689Z,11.42
2022-11-12T13:46:56.343Z,11.30
2022-11-12T13:49:45.117Z,11.41
2022-11-12T13:52:33.280Z,11.54
2022-11-12T13:55:23.838Z,11.66
2022-11-12T13:58:20.893Z,11.52
2022-11-12T14:01:09.290Z,11.35
2022-11-12T14:03:56.702Z,11.58
2022-11-12T14:06:48.005Z,11.65
2022-11-12T14:09:50.925Z,11.69
2022-11-12T14:13:02.017Z,11.72
2022-11-12T14:16:11.926Z,11.54
2022-11-12T14:19:30.084Z,11.29
2022-11-12T14:22:20.000Z,11.25
2022-11-12T14:25:15.232Z,11.17
2022-11-12T14:28:03.972Z,10.69
2022-11-12T14:30:51.429Z,10.63
2022-11-12T14:33:38.842Z,10.69
2022-11-12T14:36:27.845Z,10.49
2022-11-12T14:39:15.825Z,10.69
2022-11-12T14:42:04.176Z,10.73
2022-11-12T14:44:52.776Z,10.89
2022-11-12T14:47:40.057Z,11.04
2022-11-12T14:50:34.537Z,11.09
2022-11-12T14:53:32.869Z,10.96
2022-11-12T14:56:35.190Z,10.84
2022-11-12T14:59:23.184Z,11.11
2022-11-12T15:05:23.571Z,11.12
2022-11-12T15:08:12.910Z,10.99
2022-11-12T15:11:23.248Z,10.52
2022-11-12T15:14:14.310Z,11.03
2022-11-12T15:17:01.966Z,10.87
2022-11-12T15:19:50.869Z,10.73
2022-11-12T15:22:38.441Z,10.73
2022-11-12T15:25:28.120Z,10.78
2022-11-12T15:28:22.974Z,10.76
2022-11-12T15:31:19.840Z,10.48
2022-11-12T15:34:28.136Z,10.37
2022-11-12T15:37:26.704Z,10.92
2022-11-12T15:40:19.107Z,11.55
2022-11-12T15:43:15.121Z,12.28
2022-11-12T15:46:03.131Z,12.56
2022-11-12T15:48:55.509Z,12.74
2022-11-12T15:51:43.449Z,11.97
2022-11-12T15:54:35.609Z,11.37
2022-11-12T15:57:29.635Z,11.13
2022-11-12T16:00:18.867Z,10.93
2022-11-12T16:03:14.754Z,10.88
2022-11-12T16:06:07.352Z,10.79
2022-11-12T16:08:56.104Z,11.06
2022-11-12T16:11:44.665Z,10.97
2022-11-12T16:14:32.391Z,11.65
2022-11-12T16:17:21.101Z,12.65
2022-11-12T16:20:15.447Z,13.41
2022-11-12T16:23:04.043Z,12.73
2022-11-12T16:25:51.665Z,12.09
2022-11-12T16:28:40.222Z,11.77
2022-11-12T16:31:28.032Z,11.56
2022-11-12T16:34:15.550Z,11.47
2022-11-12T16:37:04.180Z,11.52
2022-11-12T16:39:51.638Z,11.55
2022-11-12T16:42:45.511Z,11.28
2022-11-12T16:45:38.840Z,11.29
2022-11-12T16:48:26.415Z,11.12
2022-11-12T16:51:17.947Z,11.03
2022-11-12T16:54:05.420Z,10.95
2022-11-12T16:56:52.873Z,11.07
2022-11-12T16:59:40.464Z,11.33
2022-11-12T17:02:29.301Z,11.15
2022-11-12T17:05:21.070Z,11.33
2022-11-12T17:08:10.132Z,11.13
2022-11-12T17:10:57.751Z,11.04
2022-11-12T17:13:45.117Z,10.99
2022-11-12T17:16:33.012Z,11.02
2022-11-12T17:19:21.915Z,10.88
2022-11-12T17:22:09.209Z,10.95
2022-11-12T17:24:56.628Z,11.14
2022-11-12T17:27:43.980Z,11.11
2022-11-12T17:30:31.532Z,10.93
2022-11-12T17:33:18.714Z,10.86
2022-11-12T17:36:09.272Z,11.13
2022-11-12T17:38:57.832Z,10.98
2022-11-12T17:41:45.226Z,10.67
2022-11-12T17:44:32.621Z,11.01
2022-11-12T17:47:19.881Z,10.75
2022-11-12T17:50:09.169Z,10.68
2022-11-12T17:52:58.038Z,10.56
2022-11-12T17:55:45.635Z,10.67
2022-11-12T17:58:33.499Z,10.52
2022-11-12T18:01:24.719Z,10.54
2022-11-12T18:04:12.845Z,10.78
2022-11-12T18:07:00.431Z,11.00
2022-11-12T18:09:49.853Z,10.90
2022-11-12T18:12:37.273Z,11.15
2022-11-12T18:15:25.018Z,11.14
2022-11-12T18:18:12.474Z,11.18
2022-11-12T18:20:59.651Z,11.13
2022-11-12T18:23:47.498Z,11.18
2022-11-12T18:26:36.669Z,11.10
2022-11-12T18:29:24.510Z,10.99
2022-11-12T18:32:12.162Z,11.02
2022-11-12T18:34:59.721Z,11.08
2022-11-12T18:37:46.961Z,11.03
2022-11-12T18:40:34.388Z,11.13
2022-11-12T18:43:23.228Z,11.29
2022-11-12T18:46:11.866Z,11.26
2022-11-12T18:48:59.133Z,11.18
2022-11-12T18:51:46.648Z,11.29
2022-11-12T18:54:34.364Z,11.26
2022-11-12T18:57:22.472Z,11.29
2022-11-12T19:00:13.372Z,11.28
2022-11-12T19:03:01.076Z,10.40
2022-11-12T19:05:48.812Z,9.73
2022-11-12T19:08:36.908Z,9.29
2022-11-12T19:11:24.184Z,9.20
2022-11-12T19:14:12.366Z,9.33
2022-11-12T19:17:01.150Z,9.37
2022-11-12T19:19:48.727Z,9.68
2022-11-12T19:22:35.946Z,9.77
2022-11-12T19:25:23.266Z,10.13
2022-11-12T19:28:10.366Z,10.38
2022-11-12T19:30:57.846Z,10.51
2022-11-12T19:33:47.921Z,10.45
2022-11-12T19:36:36.344Z,10.46
2022-11-12T19:39:24.103Z,10.45
2022-11-12T19:42:11.242Z,10.36
2022-11-12T19:44:58.511Z,10.56
2022-11-12T19:47:46.217Z,10.72
2022-11-12T19:50:37.149Z,10.91
2022-11-12T19:53:24.348Z,10.79
2022-11-12T19:56:13.592Z,10.93
2022-11-12T19:59:01.731Z,10.59
2022-11-12T20:01:49.200Z,9.92
2022-11-12T20:04:36.896Z,10.09
2022-11-12T20:07:25.508Z,10.45
2022-11-12T20:10:13.325Z,10.67
2022-11-12T20:13:02.101Z,10.76
2022-11-12T20:15:49.789Z,10.86
2022-11-12T20:18:36.997Z,11.07
2022-11-12T20:21:24.588Z,11.01
2022-11-12T20:24:13.698Z,10.59
2022-11-12T20:27:01.054Z,10.63
2022-11-12T20:29:48.289Z,10.70
2022-11-12T20:32:35.927Z,10.65
2022-11-12T20:35:23.800Z,10.72
2022-11-12T20:38:10.900Z,10.74
2022-11-12T20:41:02.822Z,10.86
2022-11-12T20:43:53.851Z,10.85
2022-11-12T20:46:41.384Z,10.42
2022-11-12T20:49:29.938Z,11.15
2022-11-12T20:52:17.424Z,11.51
2022-11-12T20:55:05.160Z,11.34
2022-11-12T20:57:53.788Z,11.24
2022-11-12T21:00:41.470Z,11.04
2022-11-12T21:03:29.003Z,10.89
2022-11-12T21:06:18.621Z,10.32
2022-11-12T21:09:06.121Z,10.23
2022-11-12T21:11:53.809Z,10.15
2022-11-12T21:14:47.429Z,10.22
2022-11-12T21:17:37.488Z,10.33
2022-11-12T21:20:24.941Z,10.23
2022-11-12T21:23:12.284Z,10.25
2022-11-12T21:26:04.505Z,10.31
2022-11-12T21:28:54.131Z,10.42
2022-11-12T21:31:42.753Z,10.42
2022-11-12T21:34:30.425Z,10.44
2022-11-12T21:37:20.025Z,10.65
2022-11-12T21:40:09.195Z,10.73
2022-11-12T21:42:56.352Z,11.23
2022-11-12T21:45:47.129Z,-145.44
2022-11-12T21:48:36.276Z,-145.44
2022-11-12T21:51:25.530Z,-145.44
2022-11-12T21:54:15.111Z,-145.44
2022-11-12T21:57:03.349Z,-145.44
2022-11-12T21:59:50.621Z,-145.44
2022-11-12T22:02:38.515Z,-145.44
2022-11-12T22:05:27.396Z,-145.44
2022-11-12T22:08:15.697Z,10.41
2022-11-12T22:11:04.615Z,10.72
2022-11-12T22:13:51.921Z,10.90
2022-11-12T22:16:39.030Z,10.92
2022-11-12T22:19:26.740Z,11.03
2022-11-12T22:22:15.776Z,11.15
2022-11-12T22:25:03.839Z,11.06
2022-11-12T22:27:51.373Z,11.21
2022-11-12T22:30:38.472Z,11.34
2022-11-12T22:33:25.784Z,11.39
2022-11-12T22:36:14.965Z,11.42
2022-11-12T22:39:06.021Z,11.40
2022-11-12T22:41:53.312Z,11.43
2022-11-12T22:44:40.897Z,11.47
2022-11-12T22:47:28.328Z,11.48
2022-11-12T22:50:16.234Z,11.53
2022-11-12T22:53:03.687Z,11.55
2022-11-12T22:55:52.404Z,11.70
2022-11-12T22:58:42.372Z,11.75
2022-11-12T23:01:32.098Z,11.78
2022-11-12T23:04:19.804Z,11.78
2022-11-12T23:07:07.177Z,11.83
2022-11-12T23:09:54.825Z,11.85
2022-11-12T23:12:43.697Z,11.88
2022-11-12T23:15:31.292Z,11.83
2022-11-12T23:18:18.716Z,11.57
2022-11-12T23:21:08.057Z,11.67
2022-11-12T23:23:57.389Z,11.65
2022-11-12T23:26:44.914Z,11.47
2022-11-12T23:29:33.662Z,11.76
2022-11-12T23:32:21.236Z,11.77
2022-11-12T23:35:08.956Z,11.51
2022-11-12T23:37:56.872Z,11.48
2022-11-12T23:40:52.718Z,11.50
2022-11-12T23:43:40.111Z,11.36
2022-11-12T23:46:28.582Z,11.61
2022-11-12T23:49:16.115Z,11.75
2022-11-12T23:52:05.188Z,11.90
2022-11-12T23:54:52.767Z,11.98
2022-11-12T23:57:40.199Z,-145.44
